Hauptseite
METAR-TAF:

METAR-TAF

Flughäfen :

Damaskus, Syrien

Flughafen Damaskus

Breite: 33-25N, Länge: 036-31E, Höhe: 608 m

Beobachtung

Neuester Wetterbericht von vor 1 Stunde und 9 Minuten, um 13:00 UTC
Wind 4 kt aus Nordwest
Temperatur 29°C
Luftfeuchtigkeit 11%
Luftdruck 1016 hPa
Sichtweite 10 km oder mehr
keine Wolken unter 1500 m und keine Kumulonimbus oder Gewitterwolken

METAR: OSDI 201300Z 32004KT CAVOK 29/M05 Q1016

Zeit: 17:09 (14:09 UTC)

Prognose

Gültige Prognose vom 20 um 12 UTC bis 21 um 18 UTC
Wind 3 kt aus unterschiedlichen Richtungen
Sichtweite 10 km oder mehr
keine Wolken unter 1500 m und keine Kumulonimbus oder Gewitterwolken
Zeitweise
vom 21 um 09 UTC bis 21 um 18 UTC
Wind 10 kt aus Südwest
Sichtweite 10 km oder mehr
Leicht bewölkt in der Höhe von 3000 ft

TAF: OSDI 2012/2118 VRB03KT CAVOK TEMPO 2109/2118 22010KT 9999 FEW030

Wetterbeobachtungen und Prognosen von mehr als 4000 Flughäfen (METAR und TAF Bericht).

Die verfügbaren Stationen werden durch gelbe und rote Markierungen auf der Karte dargestellt.

Führen Sie die Maus auf sie, um den Namen der Station zu sehen.

Darauf klicken, um die Beobachtung von Wetterbeobachtungen und Prognosen zu sehen.

Um die Karte zu ändern : klicken Sie auf den grünen Tasten mit einem schwarzen Kreuz Zum Vergrößern, auf den grünen Button mit einem Gedankenstrich zu verkleinern, oder auf die grünen Pfeile für benachbarte Karten.


METAR-TAF: